createdAt,value
2022-12-09T00:02:50.533Z,4.01
2022-12-09T00:05:52.650Z,4.01
2022-12-09T00:08:56.832Z,4.01
2022-12-09T00:11:58.935Z,4.00
2022-12-09T00:15:00.953Z,4.00
2022-12-09T00:18:03.058Z,3.99
2022-12-09T00:21:40.570Z,3.98
2022-12-09T00:24:42.659Z,3.97
2022-12-09T00:27:44.782Z,3.94
2022-12-09T00:30:47.110Z,3.93
2022-12-09T00:33:49.444Z,3.92
2022-12-09T00:36:51.555Z,3.91
2022-12-09T00:39:53.771Z,3.90
2022-12-09T00:42:55.769Z,3.89
2022-12-09T00:45:58.134Z,3.89
2022-12-09T00:49:00.207Z,3.88
2022-12-09T00:52:02.240Z,3.86
2022-12-09T00:55:04.600Z,3.86
2022-12-09T00:58:07.137Z,3.86
2022-12-09T01:01:12.490Z,3.82
2022-12-09T01:04:14.916Z,3.80
2022-12-09T01:07:17.281Z,3.83
2022-12-09T01:10:19.506Z,3.79
2022-12-09T01:13:21.668Z,3.75
2022-12-09T01:16:26.667Z,3.73
2022-12-09T01:19:28.761Z,3.72
2022-12-09T01:22:31.004Z,3.73
2022-12-09T01:25:33.184Z,3.72
2022-12-09T01:28:36.653Z,3.72
2022-12-09T01:31:39.042Z,3.71
2022-12-09T01:34:41.271Z,3.73
2022-12-09T01:37:43.235Z,3.71
2022-12-09T01:40:47.183Z,3.73
2022-12-09T01:44:14.258Z,3.73
2022-12-09T01:47:22.812Z,3.73
2022-12-09T01:50:27.323Z,3.74
2022-12-09T01:53:38.873Z,3.74
2022-12-09T01:56:41.618Z,3.78
2022-12-09T01:59:45.983Z,3.77
2022-12-09T02:02:49.840Z,3.78
2022-12-09T02:05:52.353Z,3.78
2022-12-09T02:08:55.558Z,3.79
2022-12-09T02:11:57.784Z,3.81
2022-12-09T02:15:10.108Z,3.81
2022-12-09T02:18:50.287Z,3.81
2022-12-09T02:21:58.950Z,3.80
2022-12-09T02:25:10.994Z,3.81
2022-12-09T02:28:19.360Z,3.83
2022-12-09T02:31:33.845Z,3.85
2022-12-09T02:34:46.103Z,3.86
2022-12-09T02:37:58.341Z,3.86
2022-12-09T02:41:23.932Z,3.88
2022-12-09T02:44:27.868Z,3.88
2022-12-09T02:47:33.480Z,3.89
2022-12-09T02:50:39.057Z,3.87
2022-12-09T02:53:43.403Z,3.89
2022-12-09T02:56:55.713Z,3.89
2022-12-09T02:59:58.382Z,3.91
2022-12-09T03:03:04.743Z,3.92
2022-12-09T03:06:14.500Z,3.91
2022-12-09T03:09:22.485Z,3.91
2022-12-09T03:12:31.342Z,3.92
2022-12-09T03:15:37.768Z,3.92
2022-12-09T03:18:45.793Z,3.93
2022-12-09T03:21:51.782Z,3.92
2022-12-09T03:25:27.573Z,3.91
2022-12-09T03:28:40.804Z,3.91
2022-12-09T03:31:44.397Z,3.91
2022-12-09T03:34:50.367Z,3.91
2022-12-09T03:37:53.936Z,3.93
2022-12-09T03:41:04.096Z,3.93
2022-12-09T03:44:16.363Z,3.94
2022-12-09T03:47:18.598Z,3.93
2022-12-09T03:50:25.307Z,3.96
2022-12-09T03:53:39.142Z,3.94
2022-12-09T03:56:46.155Z,3.93
2022-12-09T03:59:58.146Z,3.91
2022-12-09T04:03:00.696Z,3.90
2022-12-09T04:06:03.253Z,3.91
2022-12-09T04:09:06.701Z,3.89
2022-12-09T04:12:09.461Z,3.91
2022-12-09T04:15:11.747Z,3.91
2022-12-09T04:18:13.917Z,3.92
2022-12-09T04:21:16.398Z,3.96
2022-12-09T04:24:19.026Z,3.98
2022-12-09T04:27:21.698Z,3.97
2022-12-09T04:30:23.715Z,4.00
2022-12-09T04:33:26.971Z,4.03
2022-12-09T04:36:29.559Z,4.05
2022-12-09T04:39:31.727Z,4.08
2022-12-09T04:42:34.005Z,4.11
2022-12-09T04:45:36.797Z,4.13
2022-12-09T04:48:39.311Z,4.15
2022-12-09T04:51:41.619Z,4.16
2022-12-09T04:54:44.008Z,4.18
2022-12-09T04:57:46.250Z,4.17
2022-12-09T05:00:48.444Z,4.20
2022-12-09T05:03:52.595Z,4.21
2022-12-09T05:06:55.042Z,4.23
2022-12-09T05:09:58.701Z,4.23
2022-12-09T05:13:01.471Z,4.23
2022-12-09T05:16:15.426Z,4.25
2022-12-09T05:19:18.758Z,4.25
2022-12-09T05:22:21.162Z,4.26
2022-12-09T05:25:24.018Z,4.25
2022-12-09T05:28:26.323Z,4.25
2022-12-09T05:31:29.007Z,4.26
2022-12-09T05:34:31.443Z,4.25
2022-12-09T05:37:33.974Z,4.23
2022-12-09T05:40:37.555Z,4.25
2022-12-09T05:43:40.177Z,4.26
2022-12-09T05:46:42.800Z,4.27
2022-12-09T05:49:45.445Z,4.26
2022-12-09T05:52:47.840Z,4.26
2022-12-09T05:55:49.915Z,4.26
2022-12-09T05:58:53.398Z,4.26
2022-12-09T06:01:55.745Z,4.25
2022-12-09T06:04:58.004Z,4.25
2022-12-09T06:08:03.829Z,4.25
2022-12-09T06:11:20.303Z,4.25
2022-12-09T06:14:23.066Z,4.24
2022-12-09T06:17:25.510Z,4.23
2022-12-09T06:20:27.868Z,4.22
2022-12-09T06:23:30.986Z,4.23
2022-12-09T06:26:33.302Z,4.22
2022-12-09T06:29:35.403Z,4.21
2022-12-09T06:32:37.618Z,4.21
2022-12-09T06:35:40.121Z,4.20
2022-12-09T06:38:42.638Z,4.22
2022-12-09T06:41:45.039Z,4.23
2022-12-09T06:44:47.323Z,4.23
2022-12-09T06:47:50.076Z,4.22
2022-12-09T06:50:52.680Z,4.23
2022-12-09T06:53:55.272Z,4.23
2022-12-09T06:56:57.783Z,4.24
2022-12-09T07:00:01.979Z,4.23
2022-12-09T07:03:04.878Z,4.23
2022-12-09T07:06:07.892Z,4.25
2022-12-09T07:09:19.953Z,4.23
2022-12-09T07:12:22.594Z,4.25
2022-12-09T07:15:24.817Z,4.23
2022-12-09T07:18:27.453Z,4.25
2022-12-09T07:21:30.428Z,4.26
2022-12-09T07:24:33.400Z,4.28
2022-12-09T07:27:35.632Z,4.30
2022-12-09T07:30:38.558Z,4.29
2022-12-09T07:33:41.447Z,4.30
2022-12-09T07:36:44.086Z,4.33
2022-12-09T07:39:46.222Z,4.31
2022-12-09T07:42:51.341Z,4.36
2022-12-09T07:45:56.113Z,4.38
2022-12-09T07:48:58.856Z,4.41
2022-12-09T07:52:01.550Z,4.39
2022-12-09T07:55:04.038Z,4.40
2022-12-09T07:58:06.476Z,4.43
2022-12-09T08:01:11.450Z,4.47
2022-12-09T08:04:14.308Z,4.51
2022-12-09T08:07:16.871Z,4.50
2022-12-09T08:10:19.731Z,4.52
2022-12-09T08:13:22.332Z,4.53
2022-12-09T08:16:25.751Z,4.55
2022-12-09T08:19:28.106Z,4.56
2022-12-09T08:22:30.478Z,4.57
2022-12-09T08:25:33.120Z,4.58
2022-12-09T08:28:35.659Z,4.65
2022-12-09T08:31:41.684Z,4.72
2022-12-09T08:34:44.535Z,4.79
2022-12-09T08:37:47.234Z,4.81
2022-12-09T08:40:49.448Z,4.80
2022-12-09T08:43:51.882Z,4.86
2022-12-09T08:46:54.038Z,4.95
2022-12-09T08:49:56.761Z,4.99
2022-12-09T08:53:00.289Z,4.96
2022-12-09T08:56:14.004Z,4.90
2022-12-09T08:59:16.986Z,4.86
2022-12-09T09:02:20.071Z,4.82
2022-12-09T09:05:22.882Z,4.84
2022-12-09T09:08:25.128Z,4.85
2022-12-09T09:11:28.781Z,4.87
2022-12-09T09:14:32.752Z,4.90
2022-12-09T09:17:34.944Z,4.91
2022-12-09T09:20:37.214Z,4.93
2022-12-09T09:23:40.801Z,4.97
2022-12-09T09:26:43.494Z,5.01
2022-12-09T09:29:45.768Z,5.03
2022-12-09T09:32:47.890Z,5.09
2022-12-09T09:35:56.012Z,5.18
2022-12-09T09:38:59.540Z,5.13
2022-12-09T09:42:09.045Z,5.15
2022-12-09T09:45:17.838Z,5.18
2022-12-09T09:48:24.611Z,5.16
2022-12-09T09:51:27.337Z,5.23
2022-12-09T09:54:29.891Z,5.19
2022-12-09T09:58:10.434Z,5.16
2022-12-09T10:01:18.865Z,5.15
2022-12-09T10:04:44.373Z,5.15
2022-12-09T10:07:54.736Z,5.10
2022-12-09T10:11:11.882Z,5.15
2022-12-09T10:14:23.308Z,5.12
2022-12-09T10:17:39.099Z,5.11
2022-12-09T10:20:42.500Z,5.17
2022-12-09T10:23:46.899Z,5.22
2022-12-09T10:27:02.213Z,5.24
2022-12-09T10:30:13.269Z,5.32
2022-12-09T10:33:21.584Z,5.35
2022-12-09T10:36:32.379Z,5.42
2022-12-09T10:39:38.172Z,5.42
2022-12-09T10:43:06.557Z,5.37
2022-12-09T10:46:24.544Z,5.47
2022-12-09T10:49:27.355Z,5.46
2022-12-09T10:52:37.195Z,5.46
2022-12-09T10:55:43.531Z,5.52
2022-12-09T10:58:46.009Z,5.49
2022-12-09T11:01:57.854Z,5.45
2022-12-09T11:05:25.517Z,5.46
2022-12-09T11:08:28.464Z,5.36
2022-12-09T11:11:42.905Z,5.32
2022-12-09T11:14:54.042Z,5.31
2022-12-09T11:18:04.201Z,5.31
2022-12-09T11:21:08.908Z,5.30
2022-12-09T11:24:24.861Z,5.34
2022-12-09T11:27:32.576Z,5.32
2022-12-09T11:31:33.475Z,5.32
2022-12-09T11:34:37.866Z,5.30
2022-12-09T11:37:40.582Z,5.28
2022-12-09T11:40:43.170Z,5.27
2022-12-09T11:43:54.809Z,5.27
2022-12-09T11:47:05.887Z,5.23
2022-12-09T11:50:17.215Z,5.28
2022-12-09T11:53:29.873Z,5.32
2022-12-09T11:56:34.603Z,5.32
2022-12-09T11:59:49.888Z,5.29
2022-12-09T12:03:12.262Z,5.27
2022-12-09T12:06:22.399Z,5.30
2022-12-09T12:09:35.002Z,5.33
2022-12-09T12:12:36.975Z,5.36
2022-12-09T12:15:51.199Z,5.37
2022-12-09T12:19:09.059Z,5.37
2022-12-09T12:22:47.044Z,5.34
2022-12-09T12:25:58.083Z,5.31
2022-12-09T12:29:05.492Z,5.31
2022-12-09T12:32:22.685Z,5.34
2022-12-09T12:35:39.776Z,5.39
2022-12-09T12:39:03.341Z,5.41
2022-12-09T12:42:32.668Z,5.44
2022-12-09T12:46:06.568Z,5.37
2022-12-09T12:49:23.421Z,5.31
2022-12-09T12:56:23.529Z,5.35
2022-12-09T12:59:35.865Z,5.41
2022-12-09T13:03:08.855Z,5.40
2022-12-09T13:06:16.441Z,5.41
2022-12-09T13:09:26.398Z,5.45
2022-12-09T13:12:53.925Z,5.41
2022-12-09T13:16:00.907Z,5.44
2022-12-09T13:19:12.875Z,5.40
2022-12-09T13:22:41.756Z,5.44
2022-12-09T13:25:56.833Z,5.45
2022-12-09T13:29:30.335Z,5.44
2022-12-09T13:33:10.601Z,5.39
2022-12-09T13:36:25.706Z,5.43
2022-12-09T13:39:58.407Z,5.49
2022-12-09T13:43:03.231Z,5.48
2022-12-09T13:46:05.412Z,5.52
2022-12-09T13:49:17.581Z,5.54
2022-12-09T13:52:44.802Z,5.54
2022-12-09T13:56:00.714Z,5.52
2022-12-09T13:59:39.960Z,5.53
2022-12-09T14:03:02.516Z,5.46
2022-12-09T14:06:21.857Z,5.46
2022-12-09T14:09:49.783Z,5.46
2022-12-09T14:12:57.584Z,5.46
2022-12-09T14:16:17.596Z,5.47
2022-12-09T14:19:26.065Z,5.48
2022-12-09T14:22:36.870Z,5.46
2022-12-09T14:25:38.814Z,5.47
2022-12-09T14:28:52.793Z,5.47
2022-12-09T14:31:54.737Z,5.45
2022-12-09T14:35:01.261Z,5.46
2022-12-09T14:38:35.390Z,5.47
2022-12-09T14:41:44.186Z,5.47
2022-12-09T14:45:09.037Z,5.47
2022-12-09T14:48:15.198Z,5.44
2022-12-09T14:51:22.788Z,5.47
2022-12-09T14:54:33.533Z,5.49
2022-12-09T14:57:40.524Z,5.47
2022-12-09T15:00:43.686Z,5.43
2022-12-09T15:03:55.720Z,5.45
2022-12-09T15:07:25.139Z,5.44
2022-12-09T15:10:36.495Z,5.43
2022-12-09T15:13:42.353Z,5.44
2022-12-09T15:16:49.332Z,5.44
2022-12-09T15:20:12.329Z,5.43
2022-12-09T15:23:30.960Z,5.43
2022-12-09T15:26:34.596Z,5.43
2022-12-09T15:29:36.887Z,5.45
2022-12-09T15:32:40.034Z,5.43
2022-12-09T15:35:43.934Z,5.45
2022-12-09T15:38:56.406Z,5.46
2022-12-09T15:42:07.343Z,5.47
2022-12-09T15:45:15.506Z,5.48
2022-12-09T15:48:23.016Z,5.48
2022-12-09T15:51:27.357Z,5.49
2022-12-09T15:54:36.442Z,5.50
2022-12-09T15:57:39.640Z,5.52
2022-12-09T16:00:49.247Z,5.53
2022-12-09T16:03:55.036Z,5.54
2022-12-09T16:07:05.007Z,5.56
2022-12-09T16:10:15.215Z,5.59
2022-12-09T16:13:21.463Z,5.58
2022-12-09T16:16:35.207Z,5.57
2022-12-09T16:19:38.812Z,5.58
2022-12-09T16:22:42.710Z,5.59
2022-12-09T16:25:48.824Z,5.58
2022-12-09T16:29:32.751Z,5.62
2022-12-09T16:32:45.657Z,5.60
2022-12-09T16:36:04.349Z,5.63
2022-12-09T16:39:10.056Z,5.65
2022-12-09T16:42:29.424Z,5.66
2022-12-09T16:45:37.858Z,5.66
2022-12-09T16:48:44.374Z,5.67
2022-12-09T16:51:47.389Z,5.68
2022-12-09T16:54:53.557Z,5.69
2022-12-09T16:58:07.308Z,5.71
2022-12-09T17:01:13.965Z,5.69
2022-12-09T17:04:27.555Z,5.72
2022-12-09T17:07:30.313Z,5.72
2022-12-09T17:10:33.046Z,5.73
2022-12-09T17:13:36.228Z,5.73
2022-12-09T17:16:39.633Z,5.73
2022-12-09T17:19:44.722Z,5.75
2022-12-09T17:22:47.758Z,5.75
2022-12-09T17:26:00.002Z,5.76
2022-12-09T17:29:03.137Z,5.74
2022-12-09T17:32:06.892Z,5.73
2022-12-09T17:35:12.810Z,5.71
2022-12-09T17:38:15.778Z,5.71
2022-12-09T17:41:21.089Z,5.71
2022-12-09T17:44:24.136Z,5.71
2022-12-09T17:47:28.309Z,5.70
2022-12-09T17:50:32.630Z,5.69
2022-12-09T17:53:37.069Z,5.68
2022-12-09T17:56:39.947Z,5.70
2022-12-09T17:59:42.370Z,5.70
2022-12-09T18:02:44.995Z,5.71
2022-12-09T18:05:47.268Z,5.71
2022-12-09T18:08:51.877Z,5.73
2022-12-09T18:11:54.448Z,5.73
2022-12-09T18:14:57.373Z,5.75
2022-12-09T18:18:01.413Z,5.74
2022-12-09T18:21:04.640Z,5.70
2022-12-09T18:24:08.853Z,5.69
2022-12-09T18:27:11.410Z,5.68
2022-12-09T18:30:14.006Z,5.67
2022-12-09T18:33:16.803Z,5.66
2022-12-09T18:36:24.352Z,5.66
2022-12-09T18:39:26.972Z,5.66
2022-12-09T18:42:29.306Z,5.66
2022-12-09T18:45:32.002Z,5.67
2022-12-09T18:48:34.926Z,5.67
2022-12-09T18:51:40.190Z,5.67
2022-12-09T18:54:45.328Z,5.68
2022-12-09T18:57:48.112Z,5.66
2022-12-09T19:00:51.964Z,5.65
2022-12-09T19:03:56.532Z,5.65
2022-12-09T19:07:00.686Z,5.64
2022-12-09T19:10:03.624Z,5.62
2022-12-09T19:13:07.999Z,5.61
2022-12-09T19:16:15.379Z,5.62
2022-12-09T19:19:21.856Z,5.61
2022-12-09T19:22:24.435Z,5.62
2022-12-09T19:25:29.204Z,5.63
2022-12-09T19:28:32.467Z,5.66
2022-12-09T19:31:42.149Z,5.65
2022-12-09T19:34:53.352Z,5.65
2022-12-09T19:38:01.181Z,5.66
2022-12-09T19:41:05.071Z,5.64
2022-12-09T19:44:15.343Z,5.67
2022-12-09T19:47:21.293Z,5.65
2022-12-09T19:50:24.517Z,5.65
2022-12-09T19:53:27.685Z,5.61
2022-12-09T19:56:33.251Z,5.60
2022-12-09T19:59:36.602Z,5.59
2022-12-09T20:02:39.888Z,5.56
2022-12-09T20:05:53.488Z,5.54
2022-12-09T20:08:56.463Z,5.52
2022-12-09T20:11:59.298Z,5.52
2022-12-09T20:15:03.767Z,5.53
2022-12-09T20:18:07.309Z,5.53
2022-12-09T20:21:12.581Z,5.54
2022-12-09T20:24:15.684Z,5.55
2022-12-09T20:27:18.750Z,5.55
2022-12-09T20:30:21.562Z,5.57
2022-12-09T20:33:28.422Z,5.58
2022-12-09T20:36:33.776Z,5.59
2022-12-09T20:39:36.788Z,5.59
2022-12-09T20:42:39.558Z,5.58
2022-12-09T20:45:42.593Z,5.54
2022-12-09T20:48:46.943Z,5.54
2022-12-09T20:51:50.231Z,5.53
2022-12-09T20:54:54.052Z,5.51
2022-12-09T20:57:56.688Z,5.52
2022-12-09T21:01:12.124Z,5.57
2022-12-09T21:04:16.217Z,5.58
2022-12-09T21:07:19.258Z,5.54
2022-12-09T21:10:22.341Z,5.50
2022-12-09T21:13:25.288Z,5.51
2022-12-09T21:16:31.125Z,5.52
2022-12-09T21:19:35.332Z,5.57
2022-12-09T21:22:37.747Z,5.58
2022-12-09T21:25:40.087Z,5.58
2022-12-09T21:28:44.285Z,5.57
2022-12-09T21:31:49.370Z,5.58
2022-12-09T21:34:52.134Z,5.58
2022-12-09T21:37:57.832Z,5.56
2022-12-09T21:41:05.557Z,5.58
2022-12-09T21:44:10.782Z,5.58
2022-12-09T21:47:13.606Z,5.59
2022-12-09T21:50:15.766Z,5.59
2022-12-09T21:53:17.898Z,5.58
2022-12-09T21:56:25.145Z,5.56
2022-12-09T21:59:28.011Z,5.59
2022-12-09T22:02:30.834Z,5.60
2022-12-09T22:05:33.674Z,5.62
2022-12-09T22:08:36.814Z,5.65
2022-12-09T22:11:39.907Z,5.67
2022-12-09T22:14:41.973Z,5.67
2022-12-09T22:17:44.045Z,5.81
2022-12-09T22:21:24.213Z,5.78
2022-12-09T22:24:09.503Z,5.79
2022-12-09T22:27:11.520Z,5.79
2022-12-09T22:30:14.013Z,5.76
2022-12-09T22:33:16.014Z,5.72
2022-12-09T22:36:18.779Z,5.66
2022-12-09T22:39:22.249Z,5.65
2022-12-09T22:42:24.429Z,5.64
2022-12-09T22:45:26.500Z,5.64
2022-12-09T22:48:28.505Z,5.64
2022-12-09T22:51:32.971Z,5.65
2022-12-09T22:54:34.953Z,5.66
2022-12-09T22:57:36.996Z,5.66
2022-12-09T23:00:41.668Z,5.68
2022-12-09T23:03:44.527Z,5.71
2022-12-09T23:06:46.538Z,5.74
2022-12-09T23:09:48.526Z,5.77
2022-12-09T23:12:50.507Z,5.79
2022-12-09T23:15:52.666Z,5.80
2022-12-09T23:18:56.831Z,5.75
2022-12-09T23:21:58.858Z,5.75
2022-12-09T23:25:00.888Z,5.73
2022-12-09T23:28:04.464Z,5.73
2022-12-09T23:31:10.142Z,5.73
2022-12-09T23:34:14.124Z,5.71
2022-12-09T23:37:16.222Z,5.71
2022-12-09T23:40:18.419Z,5.69
2022-12-09T23:43:21.116Z,5.68
2022-12-09T23:46:25.863Z,5.65
2022-12-09T23:49:27.972Z,5.66
2022-12-09T23:52:30.166Z,5.67
2022-12-09T23:55:32.295Z,5.64
2022-12-09T23:58:34.459Z,5.60
